Time;durP1;ratioP1;P1;durP2;ratioP2;P2;SDS_P1;SDS_P2;PMS_P1;PMS_P2;Temp;Humidity;BMP_temperature;BMP_pressure;BME280_temperature;BME280_humidity;BME280_pressure;Samples;Min_cycle;Max_cycle;Signal;HPM_P1;HPM_P2
2021/09/18 00:00:22;;;;;;;2.00;1.80;;;10.10;90.80;;;;;;4960821;28;20079;-68
2021/09/18 00:02:48;;;;;;;1.70;1.60;;;10.10;90.50;;;;;;4947773;28;20031;-68
2021/09/18 00:05:13;;;;;;;1.98;1.88;;;10.00;90.50;;;;;;4947303;28;21048;-69
2021/09/18 00:07:39;;;;;;;2.05;1.80;;;10.00;90.60;;;;;;4948549;28;20027;-68
2021/09/18 00:10:06;;;;;;;1.90;1.80;;;10.00;90.90;;;;;;4948576;28;20031;-68
2021/09/18 00:12:31;;;;;;;2.33;2.13;;;9.90;91.30;;;;;;4948612;28;20023;-68
2021/09/18 00:14:57;;;;;;;3.03;1.92;;;9.80;91.20;;;;;;4946462;28;20046;-68
2021/09/18 00:17:25;;;;;;;2.17;2.00;;;9.80;91.10;;;;;;4949652;28;20122;-68
2021/09/18 00:19:52;;;;;;;2.40;2.20;;;9.90;91.00;;;;;;4947676;28;20657;-68
2021/09/18 00:22:17;;;;;;;2.78;2.47;;;9.90;91.10;;;;;;4949239;28;20027;-68
2021/09/18 00:24:44;;;;;;;2.47;2.28;;;9.90;90.90;;;;;;4948177;28;20107;-68
2021/09/18 00:27:10;;;;;;;3.50;2.70;;;9.90;90.90;;;;;;4947751;28;20677;-68
2021/09/18 00:29:35;;;;;;;3.42;2.70;;;9.80;91.60;;;;;;4947213;28;20027;-69
2021/09/18 00:32:01;;;;;;;4.80;2.75;;;9.70;91.90;;;;;;4947850;28;20102;-68
2021/09/18 00:34:27;;;;;;;2.03;1.80;;;9.80;91.70;;;;;;4952202;28;20027;-69
2021/09/18 00:36:53;;;;;;;2.63;1.75;;;9.80;90.90;;;;;;4951347;29;20118;-69
2021/09/18 00:39:18;;;;;;;1.80;1.70;;;9.70;89.60;;;;;;4964670;28;20503;-68
2021/09/18 00:41:44;;;;;;;2.03;1.70;;;9.60;90.10;;;;;;4949918;28;20031;-70
2021/09/18 00:44:18;;;;;;;1.40;1.30;;;9.60;90.10;;;;;;4945171;28;20042;-69
2021/09/18 00:46:50;;;;;;;1.70;1.60;;;9.50;90.20;;;;;;4948502;28;20425;-69
2021/09/18 00:49:16;;;;;;;1.20;1.20;;;9.40;90.30;;;;;;4944343;28;20055;-69
2021/09/18 00:51:41;;;;;;;1.45;1.35;;;9.50;90.50;;;;;;4944967;28;20161;-68
2021/09/18 00:54:08;;;;;;;1.58;1.45;;;9.40;90.60;;;;;;4946196;28;20125;-69
2021/09/18 00:56:35;;;;;;;2.92;1.90;;;9.40;91.00;;;;;;4945528;28;20408;-69
2021/09/18 00:59:01;;;;;;;1.98;1.88;;;9.40;91.20;;;;;;4947154;28;20028;-69
2021/09/18 01:01:26;;;;;;;3.38;2.05;;;9.40;91.20;;;;;;4947203;28;20050;-69
2021/09/18 01:03:52;;;;;;;2.72;2.40;;;9.40;91.30;;;;;;4950200;28;20031;-68
2021/09/18 01:06:19;;;;;;;2.92;2.58;;;9.40;91.70;;;;;;4951673;28;20023;-68
2021/09/18 01:08:51;;;;;;;3.40;2.30;;;9.20;92.10;;;;;;4947387;28;20027;-68
2021/09/18 01:11:17;;;;;;;2.60;2.40;;;9.30;92.00;;;;;;4962505;28;20858;-68
2021/09/18 01:13:43;;;;;;;2.17;1.95;;;9.30;91.70;;;;;;4962431;28;20031;-69
2021/09/18 01:16:08;;;;;;;2.40;1.67;;;9.40;91.30;;;;;;4944019;28;20114;-69
2021/09/18 01:18:34;;;;;;;2.15;1.95;;;9.30;90.90;;;;;;4949486;28;20113;-69
2021/09/18 01:21:00;;;;;;;3.00;1.80;;;9.30;91.30;;;;;;4947177;28;20027;-69
2021/09/18 01:23:25;;;;;;;50.63;3.95;;;9.30;91.50;;;;;;4950019;28;20054;-68
2021/09/18 01:25:51;;;;;;;5.47;1.65;;;9.20;90.60;;;;;;4950336;28;20023;-68
2021/09/18 01:28:17;;;;;;;1.65;1.55;;;9.00;91.20;;;;;;4953600;28;20679;-68
2021/09/18 01:30:44;;;;;;;2.05;1.85;;;9.00;91.50;;;;;;4951823;28;20122;-68
2021/09/18 01:33:10;;;;;;;1.80;1.70;;;9.00;91.60;;;;;;4949496;29;20031;-68
2021/09/18 01:35:37;;;;;;;7.43;1.65;;;9.10;91.20;;;;;;4950749;28;20179;-68
2021/09/18 01:38:04;;;;;;;2.70;1.60;;;8.90;91.20;;;;;;4950598;28;20023;-68
2021/09/18 01:40:35;;;;;;;1.58;1.48;;;9.00;91.30;;;;;;4951364;28;20054;-68
2021/09/18 01:43:02;;;;;;;1.83;1.73;;;9.00;91.20;;;;;;4954334;28;20033;-68
2021/09/18 01:45:28;;;;;;;2.45;2.25;;;9.10;91.20;;;;;;4953885;28;20027;-68
2021/09/18 01:47:56;;;;;;;2.10;1.90;;;9.10;91.30;;;;;;4947820;28;20075;-69
2021/09/18 01:50:22;;;;;;;3.95;2.45;;;9.10;91.30;;;;;;4948909;28;20114;-68
2021/09/18 01:52:48;;;;;;;2.33;2.13;;;9.00;91.30;;;;;;4953676;28;20042;-68
2021/09/18 01:55:15;;;;;;;3.22;2.13;;;8.70;92.10;;;;;;4952417;28;20031;-69
2021/09/18 01:57:46;;;;;;;2.50;2.10;;;8.80;92.40;;;;;;4950853;28;20094;-68
2021/09/18 02:00:13;;;;;;;3.90;2.17;;;8.80;92.40;;;;;;4951790;28;20042;-68
2021/09/18 02:02:39;;;;;;;2.15;1.83;;;8.70;92.50;;;;;;4949919;28;20063;-69
2021/09/18 02:05:07;;;;;;;3.38;2.35;;;8.80;92.50;;;;;;4950160;28;20058;-69
2021/09/18 02:07:32;;;;;;;3.17;2.22;;;8.80;92.50;;;;;;4968811;28;20031;-68
2021/09/18 02:09:58;;;;;;;2.80;2.38;;;8.80;92.00;;;;;;4954420;28;20039;-68
2021/09/18 02:12:24;;;;;;;4.13;1.50;;;8.80;91.70;;;;;;4954856;28;20549;-68
2021/09/18 02:14:49;;;;;;;2.33;1.70;;;8.70;91.30;;;;;;4950824;28;20108;-68
2021/09/18 02:17:15;;;;;;;1.60;1.50;;;8.70;91.30;;;;;;4951265;29;20448;-68
2021/09/18 02:19:41;;;;;;;3.22;1.10;;;8.70;91.50;;;;;;4954719;28;20415;-68
2021/09/18 02:22:06;;;;;;;1.70;1.58;;;8.60;91.20;;;;;;4951296;28;20421;-68
2021/09/18 02:24:32;;;;;;;1.70;1.60;;;8.60;91.50;;;;;;4951770;28;20043;-68
2021/09/18 02:26:57;;;;;;;1.73;1.60;;;8.70;91.50;;;;;;4953362;28;20031;-68
2021/09/18 02:29:23;;;;;;;1.90;1.77;;;8.70;91.80;;;;;;4950007;28;20040;-69
2021/09/18 02:31:49;;;;;;;2.15;1.60;;;8.70;92.00;;;;;;4952043;28;20112;-68
2021/09/18 02:34:14;;;;;;;2.78;2.00;;;8.70;91.90;;;;;;4946059;28;21363;-68
2021/09/18 02:36:40;;;;;;;1.75;1.65;;;8.70;91.60;;;;;;4952970;28;20023;-69
2021/09/18 02:39:06;;;;;;;4.53;2.40;;;8.70;92.10;;;;;;4953169;28;20027;-68
2021/09/18 02:41:31;;;;;;;3.25;1.90;;;8.80;91.80;;;;;;4953423;28;20035;-68
2021/09/18 02:43:57;;;;;;;2.20;1.98;;;8.70;91.90;;;;;;4953821;28;20035;-68
2021/09/18 02:46:23;;;;;;;5.05;2.30;;;8.70;92.00;;;;;;4947789;28;20035;-68
2021/09/18 02:48:48;;;;;;;3.17;2.00;;;8.70;91.70;;;;;;4950502;28;20508;-69
2021/09/18 02:51:14;;;;;;;2.63;2.30;;;8.70;91.60;;;;;;4950661;28;20030;-68
2021/09/18 02:53:39;;;;;;;5.57;2.70;;;8.70;91.80;;;;;;4949904;28;20058;-68
2021/09/18 02:56:05;;;;;;;3.63;2.28;;;8.70;91.90;;;;;;4970887;28;20102;-68
2021/09/18 02:58:30;;;;;;;3.10;2.33;;;8.80;91.80;;;;;;4947419;28;20481;-68
2021/09/18 03:00:56;;;;;;;3.30;2.95;;;8.70;92.10;;;;;;4946551;28;20031;-68
2021/09/18 03:03:22;;;;;;;3.75;2.63;;;8.70;92.10;;;;;;4967930;28;20023;-68
2021/09/18 03:05:47;;;;;;;3.85;2.60;;;8.70;92.30;;;;;;4971633;28;20035;-68
2021/09/18 03:08:13;;;;;;;2.97;2.50;;;8.60;92.50;;;;;;4953743;28;20106;-68
2021/09/18 03:10:38;;;;;;;3.75;2.78;;;8.60;92.70;;;;;;4947949;28;20039;-68
2021/09/18 03:13:04;;;;;;;3.10;2.70;;;8.70;92.50;;;;;;4948206;28;20381;-69
2021/09/18 03:15:30;;;;;;;3.92;3.20;;;8.70;92.40;;;;;;4949613;28;20082;-69
2021/09/18 03:17:57;;;;;;;3.05;2.78;;;8.70;92.30;;;;;;4951510;28;20499;-68
2021/09/18 03:20:23;;;;;;;3.63;2.53;;;8.70;92.00;;;;;;4954494;28;20061;-69
2021/09/18 03:22:49;;;;;;;2.70;2.28;;;8.70;91.90;;;;;;4958720;28;20051;-69
2021/09/18 03:25:14;;;;;;;2.67;1.80;;;8.70;91.90;;;;;;4949575;28;20060;-68
2021/09/18 03:27:40;;;;;;;2.60;1.98;;;8.70;91.60;;;;;;4949884;28;20031;-68
2021/09/18 03:30:06;;;;;;;2.50;2.30;;;8.60;91.40;;;;;;4950600;28;20441;-68
2021/09/18 03:32:32;;;;;;;2.00;1.90;;;8.60;91.40;;;;;;4949442;29;20035;-68
2021/09/18 03:34:57;;;;;;;2.58;2.15;;;8.50;91.40;;;;;;4951649;28;20031;-68
2021/09/18 03:37:23;;;;;;;3.97;2.53;;;8.50;91.60;;;;;;4955423;28;20035;-68
2021/09/18 03:39:49;;;;;;;2.53;2.22;;;8.50;91.60;;;;;;4950176;28;20517;-68
2021/09/18 03:42:15;;;;;;;3.40;2.10;;;8.50;91.70;;;;;;4949772;28;20034;-68
2021/09/18 03:44:40;;;;;;;2.03;1.83;;;8.50;91.60;;;;;;4950290;28;20101;-68
2021/09/18 03:47:06;;;;;;;4.53;2.38;;;8.40;91.80;;;;;;4946388;28;20039;-68
2021/09/18 03:49:32;;;;;;;2.45;2.22;;;8.40;91.70;;;;;;4949537;28;20031;-67
2021/09/18 03:51:58;;;;;;;2.53;2.28;;;8.40;91.50;;;;;;4948301;28;20106;-68
2021/09/18 03:54:23;;;;;;;7.43;2.60;;;8.40;91.50;;;;;;4949154;28;20110;-68
2021/09/18 03:56:50;;;;;;;2.42;2.13;;;8.40;91.60;;;;;;4956323;28;20596;-67
2021/09/18 03:59:16;;;;;;;2.53;2.10;;;8.40;91.60;;;;;;4948160;28;20628;-69
2021/09/18 04:01:42;;;;;;;2.30;2.10;;;8.30;91.70;;;;;;4949863;28;20039;-68
2021/09/18 04:04:07;;;;;;;2.85;2.17;;;8.30;91.80;;;;;;4949889;28;20497;-68
2021/09/18 04:06:33;;;;;;;2.42;2.22;;;8.30;91.70;;;;;;4949854;28;20303;-68
2021/09/18 04:08:59;;;;;;;7.30;2.30;;;8.30;91.80;;;;;;4951586;28;20027;-68
2021/09/18 04:11:24;;;;;;;2.83;2.30;;;8.30;91.70;;;;;;4961745;28;20103;-69
2021/09/18 04:13:51;;;;;;;1.85;1.70;;;8.30;91.60;;;;;;4947174;28;20153;-68
2021/09/18 04:16:21;;;;;;;2.28;1.98;;;8.30;91.70;;;;;;4950206;29;20019;-68
2021/09/18 04:18:47;;;;;;;2.40;2.05;;;8.20;91.50;;;;;;4966917;28;20027;-68
2021/09/18 04:21:13;;;;;;;1.98;1.75;;;8.20;91.50;;;;;;4948076;28;20031;-68
2021/09/18 04:23:39;;;;;;;2.10;1.92;;;8.20;91.60;;;;;;4949276;28;20051;-69
2021/09/18 04:26:05;;;;;;;2.13;1.98;;;8.20;91.60;;;;;;4947397;28;20512;-69
2021/09/18 04:28:31;;;;;;;3.97;2.47;;;8.20;91.60;;;;;;4948573;28;20121;-68
2021/09/18 04:30:56;;;;;;;2.63;1.80;;;8.20;91.70;;;;;;4950094;28;20028;-68
2021/09/18 04:33:22;;;;;;;2.30;2.10;;;8.20;91.60;;;;;;4963605;28;20039;-68
2021/09/18 04:35:48;;;;;;;2.17;1.90;;;8.20;91.60;;;;;;4948597;28;20505;-68
2021/09/18 04:38:13;;;;;;;1.75;1.65;;;8.20;91.60;;;;;;4952154;28;20070;-68
2021/09/18 04:40:39;;;;;;;1.88;1.73;;;8.10;91.50;;;;;;4949305;28;20040;-68
2021/09/18 04:43:05;;;;;;;1.98;1.80;;;8.10;91.50;;;;;;4950674;28;20106;-68
2021/09/18 04:45:30;;;;;;;1.80;1.70;;;8.10;91.60;;;;;;4947776;28;20062;-68
2021/09/18 04:47:56;;;;;;;1.60;1.50;;;8.00;91.60;;;;;;4946332;28;20361;-67
2021/09/18 04:50:22;;;;;;;2.83;1.67;;;8.00;91.40;;;;;;4950473;28;20031;-68
2021/09/18 04:52:47;;;;;;;1.70;1.60;;;8.00;91.10;;;;;;4949767;28;20051;-69
2021/09/18 04:55:13;;;;;;;11.63;1.73;;;7.90;91.10;;;;;;4964997;28;20028;-68
2021/09/18 04:57:39;;;;;;;2.42;1.85;;;7.90;91.50;;;;;;4949950;28;20031;-68
2021/09/18 05:00:05;;;;;;;2.35;1.63;;;7.80;91.70;;;;;;4951816;28;20023;-68
2021/09/18 05:02:31;;;;;;;2.53;1.67;;;7.90;91.70;;;;;;4943991;28;20061;-69
2021/09/18 05:04:57;;;;;;;1.88;1.65;;;7.80;91.50;;;;;;4943505;28;20465;-68
2021/09/18 05:07:22;;;;;;;1.77;1.67;;;7.80;91.60;;;;;;4940371;28;20157;-68
2021/09/18 05:09:48;;;;;;;1.83;1.73;;;7.80;91.70;;;;;;4943310;28;20673;-68
2021/09/18 05:12:14;;;;;;;1.60;1.50;;;7.80;91.60;;;;;;4938490;28;20412;-68
2021/09/18 05:14:40;;;;;;;1.77;1.67;;;7.90;91.70;;;;;;4933920;28;20083;-69
2021/09/18 05:17:05;;;;;;;2.00;1.80;;;7.90;91.70;;;;;;4937327;28;20081;-68
2021/09/18 05:19:31;;;;;;;2.72;1.95;;;7.90;91.70;;;;;;4938341;28;20028;-68
2021/09/18 05:21:57;;;;;;;2.38;2.08;;;7.80;91.80;;;;;;4955767;28;20043;-68
2021/09/18 05:24:24;;;;;;;2.50;2.00;;;7.80;92.10;;;;;;4941182;28;20038;-68
2021/09/18 05:26:51;;;;;;;3.15;2.05;;;7.80;92.10;;;;;;4954673;28;20031;-68
2021/09/18 05:29:16;;;;;;;1.83;1.40;;;7.80;92.50;;;;;;4941026;28;20042;-68
2021/09/18 05:31:42;;;;;;;1.67;1.58;;;7.80;92.20;;;;;;4939769;28;20031;-68
2021/09/18 05:34:09;;;;;;;2.22;2.03;;;7.80;92.10;;;;;;4937277;28;20028;-68
2021/09/18 05:36:35;;;;;;;1.80;1.63;;;7.80;92.10;;;;;;4954815;28;20031;-69
2021/09/18 05:39:00;;;;;;;2.20;1.70;;;7.80;92.10;;;;;;4937788;28;20497;-68
2021/09/18 05:41:26;;;;;;;4.80;1.95;;;7.80;92.10;;;;;;4939311;28;20047;-67
2021/09/18 05:43:52;;;;;;;2.47;2.22;;;7.90;92.20;;;;;;4937608;28;20039;-68
2021/09/18 05:46:17;;;;;;;4.22;1.90;;;7.80;92.40;;;;;;4933950;28;20039;-68
2021/09/18 05:48:43;;;;;;;2.38;1.88;;;7.80;92.80;;;;;;4934586;28;20042;-68
2021/09/18 05:51:08;;;;;;;1.85;1.63;;;7.80;93.20;;;;;;4934837;28;20393;-68
2021/09/18 05:53:34;;;;;;;2.13;1.90;;;7.70;93.30;;;;;;4947736;28;20182;-68
2021/09/18 05:56:00;;;;;;;2.33;2.13;;;7.80;93.20;;;;;;4934344;28;20496;-69
2021/09/18 05:58:25;;;;;;;3.47;2.00;;;7.90;93.60;;;;;;4936028;28;20028;-68
2021/09/18 06:00:51;;;;;;;2.13;1.92;;;7.90;93.60;;;;;;4935513;28;20039;-69
2021/09/18 06:03:17;;;;;;;3.28;2.38;;;7.90;94.10;;;;;;4936830;28;20102;-68
2021/09/18 06:05:42;;;;;;;1.80;1.65;;;7.90;94.20;;;;;;4949047;28;20350;-68
2021/09/18 06:08:08;;;;;;;2.10;1.90;;;8.00;94.30;;;;;;4933329;28;20110;-68
2021/09/18 06:10:33;;;;;;;5.03;2.47;;;8.00;94.30;;;;;;4938980;28;20035;-68
2021/09/18 06:12:59;;;;;;;2.60;2.22;;;8.10;94.50;;;;;;4935305;28;20114;-68
2021/09/18 06:15:25;;;;;;;4.75;3.00;;;8.10;94.60;;;;;;4942437;28;20130;-68
2021/09/18 06:17:50;;;;;;;4.10;2.80;;;8.20;94.50;;;;;;4943191;28;20031;-68
2021/09/18 06:20:16;;;;;;;4.68;3.05;;;8.30;95.00;;;;;;4943402;28;20488;-69
2021/09/18 06:22:42;;;;;;;3.97;2.90;;;8.30;95.20;;;;;;4948289;28;20042;-69
2021/09/18 06:25:11;;;;;;;3.50;3.17;;;8.40;95.10;;;;;;4947908;28;20392;-69
2021/09/18 06:27:37;;;;;;;5.78;3.38;;;8.50;94.50;;;;;;4945429;28;20030;-68
2021/09/18 06:30:04;;;;;;;3.58;3.13;;;8.60;94.60;;;;;;4948106;28;20107;-68
2021/09/18 06:32:30;;;;;;;5.53;3.45;;;8.70;94.50;;;;;;4948070;28;20063;-68
2021/09/18 06:34:55;;;;;;;9.25;4.95;;;8.70;94.80;;;;;;4947320;28;20425;-68
2021/09/18 06:37:21;;;;;;;6.13;3.67;;;8.80;95.70;;;;;;4951385;28;20033;-68
2021/09/18 06:39:46;;;;;;;6.30;3.88;;;8.80;95.80;;;;;;4945577;28;20035;-68
2021/09/18 06:42:12;;;;;;;5.80;4.05;;;8.90;95.90;;;;;;4947215;28;21907;-68
2021/09/18 06:44:40;;;;;;;5.97;3.28;;;9.00;95.80;;;;;;4949668;28;20088;-68
2021/09/18 06:47:06;;;;;;;5.90;4.00;;;9.10;95.20;;;;;;4943420;28;20031;-68
2021/09/18 06:49:32;;;;;;;6.03;3.65;;;9.20;95.60;;;;;;4945590;28;20039;-68
2021/09/18 06:51:58;;;;;;;7.75;4.25;;;9.20;94.90;;;;;;4948081;28;20035;-68
2021/09/18 06:54:23;;;;;;;5.90;4.07;;;9.30;95.20;;;;;;4965664;28;20031;-68
2021/09/18 06:56:49;;;;;;;7.60;4.40;;;9.30;94.70;;;;;;4950300;28;20030;-68
2021/09/18 06:59:15;;;;;;;8.85;4.50;;;9.40;94.70;;;;;;4951244;28;20027;-69
2021/09/18 07:01:41;;;;;;;7.55;4.57;;;9.50;95.50;;;;;;4951555;28;20039;-69
2021/09/18 07:04:06;;;;;;;6.85;3.95;;;9.50;95.40;;;;;;4951060;28;20450;-68
2021/09/18 07:06:32;;;;;;;7.35;4.63;;;9.60;95.30;;;;;;4950351;28;20562;-68
2021/09/18 07:08:57;;;;;;;9.23;4.57;;;9.70;95.30;;;;;;4949938;28;20042;-68
2021/09/18 07:11:23;;;;;;;9.18;4.65;;;9.70;95.30;;;;;;4951435;28;20516;-69
2021/09/18 07:13:49;;;;;;;7.82;4.38;;;9.80;95.50;;;;;;4949707;28;20074;-68
2021/09/18 07:16:15;;;;;;;8.50;5.65;;;9.80;96.20;;;;;;4949845;28;20027;-68
2021/09/18 07:18:40;;;;;;;6.68;4.93;;;9.90;96.30;;;;;;4946365;28;20037;-68
2021/09/18 07:21:06;;;;;;;7.97;5.03;;;10.00;96.30;;;;;;4944903;28;20479;-68
2021/09/18 07:23:32;;;;;;;8.23;5.00;;;10.10;96.10;;;;;;4950915;28;20055;-68
2021/09/18 07:25:57;;;;;;;7.50;4.82;;;10.10;96.10;;;;;;4947215;28;20482;-68
2021/09/18 07:28:23;;;;;;;9.07;5.07;;;10.20;96.80;;;;;;4952277;28;20038;-68
2021/09/18 07:30:49;;;;;;;9.98;5.43;;;10.30;96.50;;;;;;4951240;28;20035;-68
2021/09/18 07:33:14;;;;;;;11.25;5.80;;;10.40;96.60;;;;;;4949567;29;20031;-69
2021/09/18 07:35:40;;;;;;;15.45;7.03;;;10.50;97.60;;;;;;4949385;28;20031;-68
2021/09/18 07:38:06;;;;;;;12.10;6.53;;;10.60;97.90;;;;;;4947397;28;20031;-69
2021/09/18 07:40:34;;;;;;;9.95;6.70;;;10.70;97.30;;;;;;4966448;28;20141;-68
2021/09/18 07:43:00;;;;;;;14.80;6.90;;;10.80;96.80;;;;;;4965403;28;20039;-68
2021/09/18 07:45:26;;;;;;;15.02;7.38;;;10.90;96.80;;;;;;4941416;28;20039;-69
2021/09/18 07:47:52;;;;;;;14.10;7.93;;;11.10;96.70;;;;;;4942198;28;20050;-68
2021/09/18 07:50:18;;;;;;;14.88;7.40;;;11.20;97.60;;;;;;4944666;28;20121;-69
2021/09/18 07:52:44;;;;;;;18.35;8.43;;;11.40;97.60;;;;;;4944649;28;20066;-69
2021/09/18 07:55:10;;;;;;;16.25;8.82;;;11.50;97.50;;;;;;4944535;28;20038;-69
2021/09/18 07:57:37;;;;;;;16.33;8.70;;;11.60;97.20;;;;;;4959756;28;20023;-69
2021/09/18 08:00:07;;;;;;;15.10;9.40;;;11.70;96.70;;;;;;4945795;28;20031;-68
2021/09/18 08:02:33;;;;;;;16.25;8.65;;;11.80;96.70;;;;;;4950725;28;20063;-69
2021/09/18 08:04:59;;;;;;;18.00;9.15;;;11.90;96.40;;;;;;4950302;28;20031;-69
2021/09/18 08:07:24;;;;;;;14.85;8.82;;;12.10;96.60;;;;;;4950559;28;20449;-69
2021/09/18 08:09:53;;;;;;;16.77;9.73;;;12.20;96.10;;;;;;4951526;28;20173;-69
2021/09/18 08:12:18;;;;;;;14.07;8.52;;;12.30;96.00;;;;;;4944927;28;20484;-69
2021/09/18 08:14:44;;;;;;;13.07;7.90;;;12.50;96.00;;;;;;4948168;28;20118;-68
2021/09/18 08:17:10;;;;;;;14.52;8.27;;;12.60;95.80;;;;;;4945648;28;20032;-69
2021/09/18 08:19:36;;;;;;;13.23;7.45;;;12.80;95.70;;;;;;4947064;28;20019;-69
2021/09/18 08:22:02;;;;;;;18.45;8.88;;;13.00;95.20;;;;;;4947553;28;20524;-68
2021/09/18 08:24:27;;;;;;;11.98;8.15;;;13.10;95.10;;;;;;4947694;28;20461;-69
2021/09/18 08:26:53;;;;;;;14.30;8.57;;;13.20;94.40;;;;;;4944387;28;20822;-69
2021/09/18 08:29:19;;;;;;;15.45;8.10;;;13.40;94.50;;;;;;4948358;28;20063;-68
2021/09/18 08:31:44;;;;;;;14.77;8.50;;;13.50;93.90;;;;;;4950243;28;20125;-68
2021/09/18 08:34:10;;;;;;;13.73;8.52;;;13.70;93.80;;;;;;4943892;28;20584;-68
2021/09/18 08:36:35;;;;;;;15.93;9.07;;;13.80;92.80;;;;;;4948582;28;20042;-68
2021/09/18 08:39:01;;;;;;;13.15;8.07;;;13.90;92.60;;;;;;4947250;28;20381;-69
2021/09/18 08:41:30;;;;;;;15.15;8.18;;;14.00;92.40;;;;;;4964052;28;20039;-68
2021/09/18 08:43:56;;;;;;;13.77;7.90;;;14.10;92.30;;;;;;4944400;28;20027;-68
2021/09/18 08:46:24;;;;;;;12.48;7.40;;;14.20;91.70;;;;;;4948959;28;20082;-68
2021/09/18 08:48:52;;;;;;;14.90;7.50;;;14.40;91.60;;;;;;4949592;28;20046;-68
2021/09/18 08:51:17;;;;;;;10.80;7.30;;;14.50;91.50;;;;;;4951671;28;20141;-68
2021/09/18 08:53:43;;;;;;;11.73;7.35;;;14.60;91.40;;;;;;4956560;28;20169;-68
2021/09/18 08:56:09;;;;;;;11.77;7.35;;;14.70;90.90;;;;;;4950108;28;20055;-68
2021/09/18 08:58:34;;;;;;;11.02;6.65;;;14.90;90.70;;;;;;4950427;28;20030;-68
2021/09/18 09:01:01;;;;;;;10.90;6.13;;;14.90;90.20;;;;;;4949639;28;20027;-68
2021/09/18 09:03:33;;;;;;;10.85;6.25;;;15.10;90.20;;;;;;4966567;28;20039;-68
2021/09/18 09:06:07;;;;;;;10.07;6.30;;;15.20;90.80;;;;;;4951234;28;20417;-68
2021/09/18 09:08:33;;;;;;;8.88;5.88;;;15.30;90.40;;;;;;4950811;28;20031;-68
2021/09/18 09:11:14;;;;;;;8.65;5.63;;;15.50;90.10;;;;;;4947381;28;20503;-69
2021/09/18 09:13:56;;;;;;;9.15;5.50;;;15.60;89.90;;;;;;4943227;28;20027;-68
2021/09/18 09:16:22;;;;;;;9.48;5.50;;;15.70;89.80;;;;;;4948096;28;20024;-69
2021/09/18 09:18:48;;;;;;;7.80;5.30;;;15.90;90.20;;;;;;4948739;28;20086;-68
2021/09/18 09:21:22;;;;;;;7.38;4.63;;;16.00;88.20;;;;;;4947942;28;20425;-69
2021/09/18 09:24:11;;;;;;;7.43;5.38;;;16.10;87.40;;;;;;4943362;28;20130;-69
2021/09/18 09:26:43;;;;;;;8.18;5.38;;;16.20;87.00;;;;;;4951634;28;20027;-68
2021/09/18 09:29:09;;;;;;;8.40;4.70;;;16.30;86.30;;;;;;4944371;28;20058;-69
2021/09/18 09:31:37;;;;;;;7.75;5.00;;;16.30;84.60;;;;;;4947542;28;20035;-69
2021/09/18 09:34:03;;;;;;;;;;;16.30;84.90;;;;;;4958716;28;20038;-69
2021/09/18 09:36:30;;;;;;;7.63;4.63;;;16.40;83.90;;;;;;4947509;28;19910;-68
2021/09/18 09:38:59;;;;;;;7.68;4.75;;;16.40;83.40;;;;;;4950133;28;20031;-69
2021/09/18 09:41:38;;;;;;;6.55;4.82;;;16.50;81.30;;;;;;4945582;28;20122;-69
2021/09/18 09:44:25;;;;;;;8.27;4.88;;;16.50;83.10;;;;;;4948909;28;20313;-68
2021/09/18 09:47:03;;;;;;;7.82;4.50;;;16.60;80.80;;;;;;4941277;28;20082;-69
2021/09/18 09:49:43;;;;;;;9.27;4.28;;;16.70;79.80;;;;;;4948657;28;20031;-68
2021/09/18 09:52:29;;;;;;;7.47;4.68;;;16.60;79.80;;;;;;4948970;28;20031;-68
2021/09/18 09:55:05;;;;;;;5.05;3.63;;;16.70;79.70;;;;;;4946694;28;20032;-68
2021/09/18 09:57:31;;;;;;;6.20;4.20;;;16.90;80.10;;;;;;4952897;28;20023;-68
2021/09/18 10:00:05;;;;;;;4.40;3.97;;;17.00;76.70;;;;;;4952492;28;20043;-69
2021/09/18 10:02:30;;;;;;;7.22;3.72;;;17.10;77.10;;;;;;4948221;28;20536;-68
2021/09/18 10:04:56;;;;;;;7.20;3.00;;;17.20;77.70;;;;;;4948804;28;20039;-68
2021/09/18 10:07:23;;;;;;;7.38;4.25;;;17.20;77.70;;;;;;4946126;28;20031;-72
2021/09/18 10:09:49;;;;;;;5.43;3.70;;;17.30;78.00;;;;;;4944086;28;20050;-68
2021/09/18 10:12:16;;;;;;;4.22;3.33;;;17.10;77.00;;;;;;4955771;28;20049;-68
2021/09/18 10:14:47;;;;;;;3.10;2.75;;;17.10;77.40;;;;;;4951360;28;20053;-69
2021/09/18 10:17:13;;;;;;;4.95;3.03;;;17.20;76.40;;;;;;4954951;28;20051;-68
2021/09/18 10:24:51;;;;;;;3.25;2.55;;;17.40;73.80;;;;;;4939860;28;20101;-70
2021/09/18 10:27:26;;;;;;;3.45;2.72;;;17.50;72.60;;;;;;4939808;28;20027;-69
2021/09/18 10:29:52;;;;;;;3.97;2.75;;;17.60;69.50;;;;;;4941023;28;20038;-69
2021/09/18 10:32:23;;;;;;;3.42;2.28;;;17.50;70.00;;;;;;4939226;28;20110;-69
2021/09/18 10:35:08;;;;;;;3.55;2.35;;;17.40;68.60;;;;;;4941263;28;20034;-70
2021/09/18 10:37:36;;;;;;;6.68;3.97;;;17.50;72.00;;;;;;4939407;28;20085;-69
2021/09/18 10:40:15;;;;;;;5.10;3.58;;;17.60;72.50;;;;;;4942497;28;20027;-70
2021/09/18 10:42:44;;;;;;;3.63;2.83;;;17.50;70.60;;;;;;4943774;28;20106;-69
2021/09/18 10:45:12;;;;;;;2.60;2.30;;;17.60;70.20;;;;;;4963308;28;20031;-70
2021/09/18 10:47:47;;;;;;;3.08;2.20;;;17.60;70.80;;;;;;4960593;28;20027;-68
2021/09/18 10:50:21;;;;;;;2.33;2.13;;;17.70;68.80;;;;;;4942550;28;20512;-69
2021/09/18 10:53:01;;;;;;;5.88;3.10;;;17.80;68.50;;;;;;4940100;28;20081;-69
2021/09/18 10:55:27;;;;;;;3.63;2.85;;;17.80;69.30;;;;;;4941474;28;20047;-69
2021/09/18 10:57:52;;;;;;;3.97;2.50;;;17.70;67.50;;;;;;4940693;28;20039;-69
2021/09/18 11:00:18;;;;;;;4.05;2.97;;;17.70;64.40;;;;;;4955242;28;20081;-69
2021/09/18 11:02:54;;;;;;;2.75;2.13;;;17.70;65.50;;;;;;4940109;28;20539;-69
2021/09/18 11:05:25;;;;;;;2.55;2.22;;;17.80;70.20;;;;;;4942838;28;20377;-68
2021/09/18 11:07:52;;;;;;;1.98;1.80;;;17.90;70.70;;;;;;4953194;28;20062;-70
2021/09/18 11:10:20;;;;;;;2.58;2.25;;;18.00;68.60;;;;;;4943789;28;20480;-69
2021/09/18 11:13:08;;;;;;;3.47;2.25;;;18.00;67.50;;;;;;4944213;28;20023;-69
2021/09/18 11:15:38;;;;;;;;;;;18.10;66.50;;;;;;4946196;28;20029;-69
2021/09/18 11:18:08;;;;;;;2.40;2.20;;;18.30;67.10;;;;;;4945714;28;19914;-71
2021/09/18 11:20:35;;;;;;;1.75;1.65;;;18.30;67.40;;;;;;4962428;28;20393;-69
2021/09/18 11:23:01;;;;;;;1.77;1.67;;;18.20;64.20;;;;;;4943531;28;20054;-68
2021/09/18 11:25:35;;;;;;;2.63;1.42;;;18.30;64.30;;;;;;4961918;28;20035;-69
2021/09/18 11:28:06;;;;;;;1.30;1.20;;;18.30;65.30;;;;;;4945170;28;20485;-69
2021/09/18 11:30:58;;;;;;;1.92;1.67;;;18.30;62.10;;;;;;4944872;28;20871;-68
2021/09/18 11:33:24;;;;;;;2.38;1.85;;;18.30;63.90;;;;;;4941983;28;20052;-69
2021/09/18 11:35:58;;;;;;;1.25;1.23;;;18.30;63.10;;;;;;4943954;28;20035;-68
2021/09/18 11:38:29;;;;;;;1.50;1.40;;;18.30;60.50;;;;;;4945560;28;20051;-69
2021/09/18 11:41:12;;;;;;;1.67;1.58;;;18.30;60.00;;;;;;4944704;28;20044;-68
2021/09/18 11:43:40;;;;;;;2.05;1.35;;;18.30;60.00;;;;;;4947338;28;20038;-69
2021/09/18 11:46:06;;;;;;;2.00;1.80;;;18.20;61.10;;;;;;4961991;28;20053;-69
2021/09/18 11:48:32;;;;;;;1.50;1.40;;;18.20;61.30;;;;;;4947498;28;20035;-69
2021/09/18 11:51:00;;;;;;;2.10;1.90;;;18.40;61.50;;;;;;4946831;28;20054;-69
2021/09/18 11:53:26;;;;;;;2.53;1.50;;;18.40;61.00;;;;;;4940162;28;20066;-69
2021/09/18 11:55:54;;;;;;;2.15;1.60;;;18.40;63.00;;;;;;4942315;28;20368;-69
2021/09/18 11:58:21;;;;;;;2.97;1.90;;;18.40;63.60;;;;;;4942221;28;20592;-72
2021/09/18 12:00:55;;;;;;;2.42;1.70;;;18.30;60.30;;;;;;4941793;28;20075;-70
2021/09/18 12:03:35;;;;;;;1.98;1.80;;;18.40;64.30;;;;;;4943410;28;20035;-69
2021/09/18 12:06:03;;;;;;;3.83;1.90;;;18.60;63.60;;;;;;4941216;28;20038;-71
2021/09/18 12:08:34;;;;;;;3.25;1.90;;;18.60;65.70;;;;;;4944191;28;20031;-68
2021/09/18 12:11:11;;;;;;;2.78;2.08;;;18.60;62.80;;;;;;4939534;28;20035;-69
2021/09/18 12:13:42;;;;;;;2.03;1.85;;;18.60;64.70;;;;;;4943920;28;20031;-69
2021/09/18 12:16:09;;;;;;;2.35;1.95;;;18.50;61.50;;;;;;4943519;28;20054;-69
2021/09/18 12:18:40;;;;;;;2.90;1.83;;;18.60;63.10;;;;;;4940191;28;20438;-68
2021/09/18 12:21:35;;;;;;;1.80;1.70;;;18.60;63.30;;;;;;4941920;28;20039;-68
2021/09/18 12:24:06;;;;;;;2.58;1.90;;;18.50;62.90;;;;;;4941135;28;20047;-68
2021/09/18 12:26:34;;;;;;;4.05;1.77;;;18.60;62.60;;;;;;4940701;28;20073;-68
2021/09/18 12:29:09;;;;;;;1.60;1.50;;;18.50;63.20;;;;;;4940475;28;20039;-68
2021/09/18 12:31:35;;;;;;;1.70;1.60;;;18.60;62.90;;;;;;4939952;28;20385;-69
2021/09/18 12:34:07;;;;;;;1.73;1.58;;;18.60;63.50;;;;;;4940334;28;20039;-68
2021/09/18 12:36:32;;;;;;;1.88;1.77;;;18.60;64.30;;;;;;4954997;28;20023;-69
2021/09/18 12:38:58;;;;;;;2.10;1.90;;;18.60;62.20;;;;;;4940218;28;20027;-69
2021/09/18 12:41:28;;;;;;;1.80;1.70;;;18.60;58.90;;;;;;4942031;28;20023;-69
2021/09/18 12:44:00;;;;;;;1.70;1.55;;;18.50;64.60;;;;;;4941865;28;20061;-69
2021/09/18 12:46:27;;;;;;;2.38;1.60;;;18.70;63.00;;;;;;4941030;28;21970;-69
2021/09/18 12:49:01;;;;;;;2.03;1.60;;;18.70;62.40;;;;;;4942658;28;20031;-70
2021/09/18 12:51:29;;;;;;;2.97;1.80;;;18.60;57.90;;;;;;4946059;28;20035;-69
2021/09/18 12:53:56;;;;;;;2.88;1.70;;;18.60;61.20;;;;;;4945182;28;20062;-70
2021/09/18 12:56:28;;;;;;;1.92;1.58;;;18.60;60.30;;;;;;4947045;28;20110;-71
2021/09/18 12:58:55;;;;;;;1.65;1.50;;;18.70;57.50;;;;;;4946002;28;20035;-68